Time;durP1;ratioP1;P1;durP2;ratioP2;P2;SDS_P1;SDS_P2;PMS_P1;PMS_P2;Temp;Humidity;BMP_temperature;BMP_pressure;BME280_temperature;BME280_humidity;BME280_pressure;Samples;Min_cycle;Max_cycle;Signal;HPM_P1;HPM_P2
2022/10/24 00:02:09;;;;;;;10.70;2.50;;;;;;;16.49;nan;100024.06;5083733;28;20036;-68
2022/10/24 00:04:36;;;;;;;8.50;2.43;;;;;;;16.48;nan;100022.41;5069120;28;20036;-69
2022/10/24 00:07:02;;;;;;;5.72;2.10;;;;;;;16.45;nan;100029.00;5097564;28;20763;-69
2022/10/24 00:09:27;;;;;;;10.57;2.72;;;;;;;16.46;nan;100024.47;5090470;28;20163;-69
2022/10/24 00:11:53;;;;;;;8.03;2.60;;;;;;;16.50;nan;100020.38;5089647;28;20118;-69
2022/10/24 00:14:18;;;;;;;5.70;2.20;;;;;;;16.54;nan;100024.25;5090204;28;20266;-69
2022/10/24 00:16:43;;;;;;;7.95;3.20;;;;;;;16.59;nan;100029.84;5091005;28;20043;-68
2022/10/24 00:19:09;;;;;;;7.75;2.38;;;;;;;16.68;nan;100031.25;5069856;28;20547;-69
2022/10/24 00:21:34;;;;;;;7.15;2.90;;;;;;;16.76;nan;100036.41;5080249;28;20038;-69
2022/10/24 00:23:59;;;;;;;8.73;2.70;;;;;;;16.84;nan;100034.59;5093260;28;20044;-69
2022/10/24 00:26:24;;;;;;;7.38;2.50;;;;;;;16.97;nan;100029.25;5087736;28;20108;-69
2022/10/24 00:28:50;;;;;;;7.45;2.80;;;;;;;17.06;nan;100028.03;5089329;28;20062;-69
2022/10/24 00:31:20;;;;;;;6.82;2.40;;;;;;;17.11;nan;100028.25;5082181;28;20070;-69
2022/10/24 00:33:46;;;;;;;6.30;2.30;;;;;;;17.18;nan;100034.41;5084846;28;20036;-69
2022/10/24 00:36:18;;;;;;;10.15;3.17;;;;;;;17.15;nan;100024.13;5082780;28;20047;-70
2022/10/24 00:38:43;;;;;;;6.97;2.30;;;;;;;17.13;nan;100020.81;5068656;28;20491;-69
2022/10/24 00:41:14;;;;;;;9.18;2.97;;;;;;;17.18;nan;100014.84;5082658;28;20036;-69
2022/10/24 00:43:40;;;;;;;11.13;2.60;;;;;;;17.23;nan;100019.59;5087170;28;20131;-69
2022/10/24 00:46:05;;;;;;;6.22;2.08;;;;;;;17.25;nan;100021.00;5086352;28;20123;-69
2022/10/24 00:48:35;;;;;;;9.02;2.70;;;;;;;17.25;nan;100020.19;5081440;28;20291;-69
2022/10/24 00:51:26;;;;;;;6.18;2.13;;;;;;;17.26;nan;100020.00;5084003;28;20032;-69
2022/10/24 00:54:04;;;;;;;10.18;2.40;;;;;;;17.30;nan;100021.22;5084804;28;20032;-69
2022/10/24 00:56:34;;;;;;;7.53;2.15;;;;;;;17.32;nan;100007.66;5086775;28;20442;-69
2022/10/24 00:59:03;;;;;;;6.25;2.33;;;;;;;17.31;nan;100016.72;5084953;28;20036;-68
2022/10/24 01:01:29;;;;;;;11.20;2.35;;;;;;;17.31;nan;100025.53;5087282;28;20606;-68
2022/10/24 01:03:54;;;;;;;6.22;1.98;;;;;;;17.31;nan;100017.53;5080554;28;20351;-69
2022/10/24 01:07:00;;;;;;;7.95;2.00;;;;;;;17.36;nan;100015.03;5086365;28;20067;-69
2022/10/24 01:09:31;;;;;;;9.45;2.30;;;;;;;17.35;nan;100017.91;5084073;28;20024;-69
2022/10/24 01:12:14;;;;;;;6.03;1.80;;;;;;;17.34;nan;100014.44;5084509;28;20321;-69
2022/10/24 01:15:05;;;;;;;8.18;2.03;;;;;;;17.33;nan;100017.31;5085383;28;20682;-68
2022/10/24 01:17:30;;;;;;;5.55;1.95;;;;;;;17.30;nan;100012.38;5081909;28;20044;-69
2022/10/24 01:20:13;;;;;;;8.43;2.20;;;;;;;17.30;nan;100013.19;5084787;28;20043;-68
2022/10/24 01:22:52;;;;;;;6.85;2.20;;;;;;;17.29;nan;100019.56;5086338;28;20124;-69
2022/10/24 01:25:31;;;;;;;6.93;2.30;;;;;;;17.24;nan;100011.38;5082135;28;20417;-69
2022/10/24 01:28:06;;;;;;;7.55;2.10;;;;;;;17.27;nan;100010.13;5085612;28;20519;-68
2022/10/24 01:30:42;;;;;;;8.63;2.17;;;;;;;17.30;nan;100010.53;5087055;28;20044;-68
2022/10/24 01:33:17;;;;;;;6.00;1.85;;;;;;;17.30;nan;99999.00;5085148;28;20545;-68
2022/10/24 01:36:15;;;;;;;6.18;2.13;;;;;;;17.28;nan;99993.91;5084884;28;20036;-68
2022/10/24 01:38:46;;;;;;;6.22;2.00;;;;;;;17.30;nan;99997.16;5085433;28;20063;-68
2022/10/24 01:41:16;;;;;;;6.55;1.80;;;;;;;17.29;nan;99997.38;5065753;28;20585;-68
2022/10/24 01:43:47;;;;;;;7.85;2.25;;;;;;;17.31;nan;99998.81;5082183;28;20036;-68
2022/10/24 01:46:20;;;;;;;6.93;2.30;;;;;;;17.31;nan;99988.13;5082491;28;20378;-68
2022/10/24 01:48:56;;;;;;;9.23;2.38;;;;;;;17.33;nan;99977.25;5082782;28;20047;-68
2022/10/24 01:51:25;;;;;;;5.57;1.70;;;;;;;17.31;nan;99971.28;5077122;28;20056;-68
2022/10/24 01:53:51;;;;;;;11.32;2.50;;;;;;;17.30;nan;99964.28;5088676;28;20068;-68
2022/10/24 01:56:16;;;;;;;5.93;2.00;;;;;;;17.30;nan;99972.28;5080853;28;20039;-69
2022/10/24 01:58:41;;;;;;;7.20;1.90;;;;;;;17.26;nan;99977.25;5087841;28;20044;-68
2022/10/24 02:01:11;;;;;;;8.27;2.10;;;;;;;17.25;nan;99972.09;5077953;28;20617;-68
2022/10/24 02:03:41;;;;;;;6.78;2.00;;;;;;;17.26;nan;99971.91;5074505;28;20081;-68
2022/10/24 02:06:12;;;;;;;10.07;2.65;;;;;;;17.25;nan;99974.78;5091495;28;20058;-70
2022/10/24 02:08:43;;;;;;;8.55;2.15;;;;;;;17.26;nan;99977.25;5088523;28;20077;-68
2022/10/24 02:11:09;;;;;;;4.75;1.80;;;;;;;17.27;nan;99986.06;5088399;28;20737;-68
2022/10/24 02:14:01;;;;;;;7.50;2.17;;;;;;;17.30;nan;99982.97;5088175;28;20271;-68
2022/10/24 02:16:28;;;;;;;3.95;1.73;;;;;;;17.32;nan;99984.41;5087944;28;20039;-69
2022/10/24 02:18:56;;;;;;;4.90;2.05;;;;;;;17.30;nan;99977.63;5079975;28;20119;-69
2022/10/24 02:21:26;;;;;;;6.45;2.08;;;;;;;17.29;nan;99987.50;5074922;28;20031;-69
2022/10/24 02:24:00;;;;;;;10.40;1.90;;;;;;;17.31;nan;99982.78;5075959;28;20377;-68
2022/10/24 02:26:42;;;;;;;8.95;2.20;;;;;;;17.29;nan;99982.16;5079746;28;20258;-69
2022/10/24 02:29:13;;;;;;;5.45;2.05;;;;;;;17.30;nan;99975.78;5080458;28;20044;-69
2022/10/24 02:31:45;;;;;;;6.80;2.00;;;;;;;17.28;nan;99980.53;5076809;28;20486;-69
2022/10/24 02:34:12;;;;;;;6.85;1.80;;;;;;;17.24;nan;99978.50;5083818;28;20131;-69
2022/10/24 02:36:40;;;;;;;9.35;1.90;;;;;;;17.21;nan;99974.38;5085938;28;20035;-69
2022/10/24 02:39:08;;;;;;;6.28;1.70;;;;;;;17.17;nan;99976.63;5080761;28;20496;-69
2022/10/24 02:41:36;;;;;;;5.68;1.63;;;;;;;17.10;nan;99973.16;5077520;28;20052;-70
2022/10/24 02:44:03;;;;;;;4.85;1.80;;;;;;;16.99;nan;99968.44;5071470;28;20036;-70
2022/10/24 02:46:30;;;;;;;6.20;1.80;;;;;;;16.88;nan;99969.91;5083763;28;20497;-69
2022/10/24 02:48:59;;;;;;;2.90;1.23;;;;;;;16.81;nan;99965.59;5066877;28;21486;-70
2022/10/24 02:51:29;;;;;;;4.45;1.30;;;;;;;16.75;nan;99967.19;5082568;28;20036;-69
2022/10/24 02:53:55;;;;;;;4.68;1.63;;;;;;;16.68;nan;99961.84;5080659;28;20564;-70
2022/10/24 02:56:21;;;;;;;4.88;1.80;;;;;;;16.69;nan;99957.34;5080080;28;20048;-70
2022/10/24 02:58:47;;;;;;;5.55;1.80;;;;;;;16.69;nan;99963.50;5069903;28;20044;-69
2022/10/24 03:01:12;;;;;;;5.38;1.77;;;;;;;16.71;nan;99952.63;5064513;28;20397;-69
2022/10/24 03:03:38;;;;;;;3.95;1.55;;;;;;;16.68;nan;99948.50;5082822;28;20068;-69
2022/10/24 03:06:03;;;;;;;5.88;1.70;;;;;;;16.65;nan;99956.94;5080686;28;20028;-69
2022/10/24 03:08:29;;;;;;;4.38;1.65;;;;;;;16.59;nan;99944.44;5074408;28;20037;-69
2022/10/24 03:10:55;;;;;;;5.15;1.67;;;;;;;16.59;nan;99943.56;5081970;28;20029;-70
2022/10/24 03:13:20;;;;;;;6.97;1.85;;;;;;;16.61;nan;99960.22;5082950;28;20039;-69
2022/10/24 03:15:45;;;;;;;5.05;1.75;;;;;;;16.59;nan;99951.59;5082682;28;20119;-69
2022/10/24 03:18:11;;;;;;;4.53;1.50;;;;;;;16.55;nan;99952.00;5077745;28;20037;-69
2022/10/24 03:20:36;;;;;;;5.07;1.40;;;;;;;16.51;nan;99955.28;5080779;28;20111;-68
2022/10/24 03:23:02;;;;;;;3.20;1.35;;;;;;;16.42;nan;99957.34;5095570;28;20622;-68
2022/10/24 03:25:27;;;;;;;4.35;1.55;;;;;;;16.32;nan;99951.56;5082378;28;20028;-69
2022/10/24 03:27:52;;;;;;;4.18;1.63;;;;;;;16.23;nan;99963.47;5080748;28;20056;-68
2022/10/24 03:30:17;;;;;;;4.22;1.70;;;;;;;16.14;nan;99977.00;5081924;28;20543;-69
2022/10/24 03:32:43;;;;;;;3.63;1.52;;;;;;;16.08;nan;99984.97;5085228;28;20036;-68
2022/10/24 03:35:09;;;;;;;4.85;1.30;;;;;;;16.01;nan;99984.94;5079871;28;20039;-69
2022/10/24 03:37:34;;;;;;;3.70;1.13;;;;;;;15.98;nan;99992.53;5084561;28;20036;-69
2022/10/24 03:39:59;;;;;;;4.80;1.40;;;;;;;15.92;nan;99987.00;5083812;28;20040;-68
2022/10/24 03:42:25;;;;;;;4.47;1.70;;;;;;;15.96;nan;99999.91;5085321;28;20104;-69
2022/10/24 03:44:50;;;;;;;5.18;1.63;;;;;;;15.98;nan;99998.69;5090876;28;20036;-69
2022/10/24 03:47:15;;;;;;;6.88;1.92;;;;;;;16.08;nan;99993.78;5084738;28;20056;-69
2022/10/24 03:49:40;;;;;;;8.65;2.15;;;;;;;16.22;nan;99994.66;5087060;28;20032;-68
2022/10/24 03:52:06;;;;;;;6.77;1.90;;;;;;;16.35;nan;99996.50;5089807;28;20036;-70
2022/10/24 03:54:31;;;;;;;7.05;2.00;;;;;;;16.48;nan;100003.75;5088566;28;20294;-69
2022/10/24 03:56:56;;;;;;;5.65;2.10;;;;;;;16.57;nan;99989.19;5084959;28;20036;-68
2022/10/24 03:59:22;;;;;;;6.13;1.73;;;;;;;16.67;nan;99994.09;5085521;28;20453;-69
2022/10/24 04:01:48;;;;;;;6.32;1.92;;;;;;;16.74;nan;99998.41;5091002;28;20093;-69
2022/10/24 04:04:13;;;;;;;6.13;1.92;;;;;;;16.81;nan;99993.13;5090133;28;20086;-68
2022/10/24 04:06:39;;;;;;;3.70;1.77;;;;;;;16.99;nan;99984.47;5093416;28;20398;-68
2022/10/24 04:09:04;;;;;;;5.78;2.38;;;;;;;16.96;nan;99985.69;5090452;28;20086;-68
2022/10/24 04:11:30;;;;;;;6.72;2.25;;;;;;;16.95;nan;99989.41;5090903;28;20036;-68
2022/10/24 04:13:56;;;;;;;6.22;2.67;;;;;;;16.92;nan;99981.81;5090921;28;20059;-68
2022/10/24 04:16:22;;;;;;;7.13;2.28;;;;;;;16.90;nan;99983.03;5090376;28;20183;-68
2022/10/24 04:18:48;;;;;;;6.97;2.20;;;;;;;16.94;nan;99984.28;5084614;28;20517;-68
2022/10/24 04:21:14;;;;;;;7.10;2.33;;;;;;;16.96;nan;99975.03;5090211;28;20370;-69
2022/10/24 04:23:41;;;;;;;4.88;2.00;;;;;;;16.96;nan;99985.69;5091792;28;20067;-69
2022/10/24 04:26:07;;;;;;;6.03;2.15;;;;;;;17.00;nan;99986.13;5086468;28;20130;-69
2022/10/24 04:28:33;;;;;;;7.28;2.08;;;;;;;17.06;nan;99990.63;5086947;28;20039;-68
2022/10/24 04:30:58;;;;;;;7.93;2.00;;;;;;;17.09;nan;99987.56;5088201;28;20434;-68
2022/10/24 04:33:23;;;;;;;6.47;2.10;;;;;;;17.18;nan;99991.66;5084506;28;20040;-69
2022/10/24 04:35:49;;;;;;;7.68;2.50;;;;;;;17.26;nan;99995.94;5081413;28;20047;-69
2022/10/24 04:38:16;;;;;;;6.88;2.05;;;;;;;17.30;nan;99994.47;5085843;28;20036;-69
2022/10/24 04:40:45;;;;;;;7.78;1.98;;;;;;;17.34;nan;99993.03;5084460;28;20032;-68
2022/10/24 04:43:11;;;;;;;5.50;2.05;;;;;;;17.38;nan;99990.78;5082803;28;20035;-68
2022/10/24 04:45:36;;;;;;;8.73;2.00;;;;;;;17.38;nan;99988.94;5069092;28;20037;-68
2022/10/24 04:48:01;;;;;;;7.43;2.08;;;;;;;17.43;nan;99982.16;5069854;28;20036;-68
2022/10/24 04:50:27;;;;;;;5.57;2.05;;;;;;;17.46;nan;99979.84;5083509;28;20047;-68
2022/10/24 04:52:52;;;;;;;7.80;2.20;;;;;;;17.51;nan;99987.25;5082808;28;20535;-68
2022/10/24 04:55:17;;;;;;;7.80;2.30;;;;;;;17.55;nan;99975.94;5086428;28;20317;-68
2022/10/24 04:57:42;;;;;;;7.07;2.37;;;;;;;17.60;nan;99972.63;5089561;28;20263;-68
2022/10/24 05:00:08;;;;;;;11.02;2.50;;;;;;;17.62;nan;99965.22;5082502;28;20286;-69
2022/10/24 05:02:33;;;;;;;10.48;2.22;;;;;;;17.65;nan;99969.31;5088050;28;20123;-68
2022/10/24 05:04:58;;;;;;;6.57;2.25;;;;;;;17.66;nan;99977.09;5091412;28;20459;-68
2022/10/24 05:07:24;;;;;;;8.35;1.92;;;;;;;17.70;nan;99985.53;5093476;28;20040;-68
2022/10/24 05:09:49;;;;;;;9.60;2.10;;;;;;;17.67;nan;99992.13;5078712;28;20043;-68
2022/10/24 05:12:14;;;;;;;10.20;2.50;;;;;;;17.67;nan;99981.44;5083797;28;20279;-68
2022/10/24 05:14:39;;;;;;;9.85;2.40;;;;;;;17.70;nan;99978.34;5086487;28;20044;-68
2022/10/24 05:17:05;;;;;;;8.93;2.30;;;;;;;17.74;nan;99989.44;5085297;28;20036;-68
2022/10/24 05:19:30;;;;;;;8.40;2.30;;;;;;;17.77;nan;99995.16;5078782;28;20053;-68
2022/10/24 05:21:55;;;;;;;8.32;2.50;;;;;;;17.80;nan;100004.63;5086753;28;20044;-68
2022/10/24 05:24:21;;;;;;;8.57;2.33;;;;;;;17.78;nan;100001.34;5080814;28;20028;-68
2022/10/24 05:26:46;;;;;;;9.57;2.88;;;;;;;17.76;nan;100001.56;5085798;28;20036;-68
2022/10/24 05:29:11;;;;;;;9.85;2.42;;;;;;;17.71;nan;100006.72;5084319;28;20456;-68
2022/10/24 05:31:37;;;;;;;8.33;2.90;;;;;;;17.61;nan;100001.81;5084245;28;20535;-68
2022/10/24 05:34:02;;;;;;;6.68;2.33;;;;;;;17.60;nan;100013.53;5080574;28;20305;-69
2022/10/24 05:36:27;;;;;;;8.38;2.45;;;;;;;17.59;nan;100016.41;5076062;28;20070;-68
2022/10/24 05:38:52;;;;;;;7.43;2.67;;;;;;;17.62;nan;100021.34;5083924;28;20504;-67
2022/10/24 05:41:18;;;;;;;11.30;2.85;;;;;;;17.59;nan;100021.75;5087461;28;20141;-70
2022/10/24 05:43:43;;;;;;;10.75;2.70;;;;;;;17.59;nan;100022.59;5085445;28;20404;-69
2022/10/24 05:46:09;;;;;;;11.63;2.37;;;;;;;17.59;nan;100027.94;5082617;28;20036;-69
2022/10/24 05:48:34;;;;;;;7.45;2.75;;;;;;;17.63;nan;100039.84;5084445;28;20674;-69
2022/10/24 05:51:00;;;;;;;9.32;2.92;;;;;;;17.65;nan;100041.50;5077175;28;20036;-69
2022/10/24 05:53:26;;;;;;;10.00;2.77;;;;;;;17.67;nan;100042.94;5084536;28;20511;-68
2022/10/24 05:55:51;;;;;;;7.05;2.35;;;;;;;17.67;nan;100042.13;5088076;28;20334;-68
2022/10/24 05:58:20;;;;;;;9.23;3.00;;;;;;;17.71;nan;100051.34;5081731;28;20103;-68
2022/10/24 06:00:46;;;;;;;7.40;2.60;;;;;;;17.70;nan;100052.38;5088045;28;20355;-68
2022/10/24 06:03:11;;;;;;;10.40;2.72;;;;;;;17.68;nan;100051.78;5080529;28;20040;-68
2022/10/24 06:05:37;;;;;;;10.85;2.58;;;;;;;17.70;nan;100045.19;5090988;28;20065;-68
2022/10/24 06:08:02;;;;;;;11.20;2.63;;;;;;;17.73;nan;100058.16;5078651;28;20040;-68
2022/10/24 06:10:27;;;;;;;9.95;2.38;;;;;;;17.69;nan;100059.59;5085702;28;20036;-68
2022/10/24 06:12:52;;;;;;;9.82;3.03;;;;;;;17.67;nan;100053.63;5082998;28;20122;-68
2022/10/24 06:15:18;;;;;;;7.15;2.80;;;;;;;17.62;nan;100054.25;5086386;28;20051;-68
2022/10/24 06:17:43;;;;;;;8.70;2.60;;;;;;;17.57;nan;100059.41;5079465;28;20505;-68
2022/10/24 06:20:10;;;;;;;16.08;3.05;;;;;;;17.54;nan;100062.50;5088090;28;20086;-68
2022/10/24 06:22:35;;;;;;;11.23;3.35;;;;;;;17.50;nan;100076.50;5092501;28;20855;-68
2022/10/24 06:25:00;;;;;;;8.10;2.80;;;;;;;17.45;nan;100087.81;5090472;28;20120;-68
2022/10/24 06:27:26;;;;;;;9.02;2.95;;;;;;;17.41;nan;100081.22;5069873;28;20036;-67
2022/10/24 06:29:51;;;;;;;9.85;2.90;;;;;;;17.39;nan;100093.97;5066480;28;20033;-68
2022/10/24 06:32:17;;;;;;;10.75;3.03;;;;;;;17.41;nan;100091.94;5084222;28;20031;-68
2022/10/24 06:34:43;;;;;;;11.65;3.33;;;;;;;17.40;nan;100088.44;5078354;28;20098;-68
2022/10/24 06:37:08;;;;;;;9.25;2.78;;;;;;;17.40;nan;100088.44;5084980;28;20571;-68
2022/10/24 06:39:33;;;;;;;11.32;2.85;;;;;;;17.39;nan;100092.13;5069332;28;20069;-68
2022/10/24 06:42:00;;;;;;;9.52;2.70;;;;;;;17.34;nan;100094.59;5087128;28;20046;-68
2022/10/24 06:44:26;;;;;;;8.60;2.70;;;;;;;17.37;nan;100096.84;5085291;28;20121;-68
2022/10/24 06:46:51;;;;;;;10.10;2.72;;;;;;;17.43;nan;100105.09;5085440;28;20450;-68
2022/10/24 06:49:17;;;;;;;10.30;2.83;;;;;;;17.46;nan;100104.69;5068223;28;20032;-68
2022/10/24 06:51:42;;;;;;;10.48;2.83;;;;;;;17.43;nan;100100.56;5084564;28;20484;-68
2022/10/24 06:54:08;;;;;;;9.88;3.05;;;;;;;17.43;nan;100110.44;5087395;28;20036;-70
2022/10/24 06:56:33;;;;;;;8.27;3.05;;;;;;;17.40;nan;100106.34;5087077;28;20060;-67
2022/10/24 06:58:58;;;;;;;10.65;2.60;;;;;;;17.39;nan;100107.34;5087302;28;20093;-68
2022/10/24 07:01:26;;;;;;;9.75;2.97;;;;;;;17.37;nan;100104.06;5090086;28;20377;-68
2022/10/24 07:03:52;;;;;;;9.77;2.42;;;;;;;17.39;nan;100108.16;5090969;28;20036;-68
2022/10/24 07:06:28;;;;;;;10.10;2.67;;;;;;;17.38;nan;100113.72;5088736;28;20173;-68
2022/10/24 07:08:56;;;;;;;10.25;2.67;;;;;;;17.40;nan;100111.69;5085648;28;20417;-68
2022/10/24 07:11:22;;;;;;;7.55;2.92;;;;;;;17.38;nan;100111.06;5086775;28;20059;-68
2022/10/24 07:13:48;;;;;;;8.45;3.10;;;;;;;17.39;nan;100115.38;5085033;28;20520;-68
2022/10/24 07:16:14;;;;;;;13.60;3.42;;;;;;;17.37;nan;100128.09;5084567;28;20040;-68
2022/10/24 07:18:40;;;;;;;12.32;3.42;;;;;;;17.38;nan;100119.06;5086090;28;20493;-68
2022/10/24 07:21:08;;;;;;;8.00;2.80;;;;;;;17.40;nan;100119.69;5087124;28;20036;-68
2022/10/24 07:23:34;;;;;;;10.38;2.92;;;;;;;17.39;nan;100124.19;5089691;28;20040;-68
2022/10/24 07:26:07;;;;;;;11.40;2.60;;;;;;;17.40;nan;100122.38;5086025;28;20039;-68
2022/10/24 07:28:34;;;;;;;11.00;3.35;;;;;;;17.40;nan;100135.72;5084763;28;20183;-67
2022/10/24 07:30:59;;;;;;;11.60;3.15;;;;;;;17.37;nan;100144.13;5079345;28;20404;-68
2022/10/24 07:33:25;;;;;;;8.77;2.90;;;;;;;17.38;nan;100135.94;5083746;28;20077;-68
2022/10/24 07:35:50;;;;;;;10.25;2.90;;;;;;;17.38;nan;100121.75;5084374;28;20070;-68
2022/10/24 07:38:16;;;;;;;9.85;2.55;;;;;;;17.37;nan;100118.22;5062960;28;20040;-68
2022/10/24 07:40:42;;;;;;;8.85;2.80;;;;;;;17.39;nan;100121.53;5082423;28;20036;-68
2022/10/24 07:43:07;;;;;;;9.07;2.95;;;;;;;17.36;nan;100119.28;5080401;28;20089;-68
2022/10/24 07:45:33;;;;;;;13.02;3.17;;;;;;;17.38;nan;100109.19;5080688;28;20114;-68
2022/10/24 07:47:58;;;;;;;6.60;3.00;;;;;;;17.40;nan;100107.16;5084731;28;20123;-68
2022/10/24 07:50:25;;;;;;;9.43;2.78;;;;;;;17.44;nan;100102.19;5081214;28;20028;-68
2022/10/24 07:52:50;;;;;;;8.68;2.70;;;;;;;17.45;nan;100101.19;5077826;28;20044;-68
2022/10/24 07:55:16;;;;;;;8.88;2.70;;;;;;;17.45;nan;100089.66;5079306;28;20389;-68
2022/10/24 07:57:41;;;;;;;5.97;2.53;;;;;;;17.46;nan;100096.66;5073764;28;20056;-68
2022/10/24 08:00:07;;;;;;;7.25;2.90;;;;;;;17.51;nan;100105.69;5078111;28;20479;-69
2022/10/24 08:02:32;;;;;;;13.43;3.22;;;;;;;17.60;nan;100104.44;5080500;28;20073;-68
2022/10/24 08:04:57;;;;;;;6.60;2.50;;;;;;;17.65;nan;100105.69;5084528;28;20043;-68
2022/10/24 08:07:23;;;;;;;7.00;2.40;;;;;;;17.71;nan;100104.81;5088253;28;20283;-68
2022/10/24 08:09:50;;;;;;;9.25;2.88;;;;;;;17.78;nan;100111.81;5080511;28;20794;-68
2022/10/24 08:12:16;;;;;;;6.95;2.40;;;;;;;17.84;nan;100107.50;5078085;28;20047;-68
2022/10/24 08:14:42;;;;;;;10.82;2.90;;;;;;;17.85;nan;100108.31;5082248;28;20068;-68
2022/10/24 08:17:08;;;;;;;7.93;2.50;;;;;;;17.87;nan;100109.75;5080147;28;20519;-70
2022/10/24 08:19:33;;;;;;;9.80;2.80;;;;;;;17.93;nan;100105.44;5072717;28;20041;-69
2022/10/24 08:22:00;;;;;;;7.55;2.60;;;;;;;17.91;nan;100113.66;5081242;28;20135;-68
2022/10/24 08:24:26;;;;;;;8.77;2.67;;;;;;;17.95;nan;100112.22;5080114;28;21713;-69
2022/10/24 08:26:51;;;;;;;7.90;2.70;;;;;;;18.01;nan;100114.03;5085806;28;20513;-70
2022/10/24 08:29:21;;;;;;;13.68;2.92;;;;;;;18.10;nan;100111.97;5086640;28;20093;-70
2022/10/24 08:31:52;;;;;;;7.28;2.65;;;;;;;18.16;nan;100116.47;5085580;28;20123;-69
2022/10/24 08:34:18;;;;;;;6.88;2.45;;;;;;;18.16;nan;100129.00;5083242;28;20382;-69
2022/10/24 08:36:44;;;;;;;10.43;2.50;;;;;;;18.15;nan;100130.88;5088397;28;20199;-69
2022/10/24 08:39:10;;;;;;;8.85;2.70;;;;;;;18.17;nan;100133.34;5086171;28;20058;-69
2022/10/24 08:41:42;;;;;;;8.18;2.50;;;;;;;18.22;nan;100131.69;5088864;28;20028;-70
2022/10/24 08:44:39;;;;;;;7.93;2.58;;;;;;;18.26;nan;100126.75;5087044;28;20040;-69
2022/10/24 08:47:29;;;;;;;9.43;2.53;;;;;;;18.23;nan;100122.63;5081289;28;20036;-69
2022/10/24 08:50:05;;;;;;;9.43;2.70;;;;;;;18.22;nan;100112.13;5087002;28;20111;-70
2022/10/24 08:52:43;;;;;;;7.15;2.65;;;;;;;18.12;nan;100107.22;5087491;28;20051;-71
2022/10/24 08:55:19;;;;;;;7.22;2.47;;;;;;;18.12;nan;100106.41;5068105;28;20039;-69
2022/10/24 08:57:50;;;;;;;6.97;2.10;;;;;;;18.13;nan;100105.38;5087696;28;20040;-69
2022/10/24 09:00:26;;;;;;;9.75;2.70;;;;;;;18.16;nan;100110.28;5087061;28;20508;-69
2022/10/24 09:03:17;;;;;;;6.82;2.28;;;;;;;18.13;nan;100108.03;5086526;28;20386;-69
2022/10/24 09:05:47;;;;;;;;;;;;;;;18.16;nan;100112.97;5086537;28;20435;-69
2022/10/24 09:08:26;;;;;;;8.30;2.67;;;;;;;18.17;nan;100115.44;5084685;28;20430;-69
2022/10/24 09:11:04;;;;;;;6.95;2.83;;;;;;;18.24;nan;100112.75;5088627;28;20078;-69
2022/10/24 09:13:32;;;;;;;8.27;2.65;;;;;;;18.32;nan;100115.16;5089702;28;20064;-69
2022/10/24 09:15:57;;;;;;;6.88;2.30;;;;;;;18.58;nan;100124.09;5085415;28;20126;-68
2022/10/24 09:18:27;;;;;;;6.90;1.90;;;;;;;18.77;nan;100123.19;5086535;28;20130;-70
2022/10/24 09:20:54;;;;;;;6.88;2.30;;;;;;;18.95;nan;100130.53;5088278;28;20036;-70
2022/10/24 09:23:22;;;;;;;5.53;2.20;;;;;;;18.94;nan;100122.69;5090559;28;20043;-69
2022/10/24 09:25:51;;;;;;;7.28;2.17;;;;;;;18.96;nan;100134.00;5087127;28;20040;-71
2022/10/24 09:28:16;;;;;;;6.88;2.42;;;;;;;18.91;nan;100136.53;5083126;28;20127;-70
2022/10/24 09:30:42;;;;;;;9.63;2.72;;;;;;;18.81;nan;100128.97;5086456;28;20127;-69
2022/10/24 09:33:34;;;;;;;6.10;2.10;;;;;;;18.77;nan;100133.91;5087709;28;20036;-69
2022/10/24 09:36:03;;;;;;;8.27;2.38;;;;;;;18.75;nan;100143.19;5080619;28;20089;-69
2022/10/24 09:38:35;;;;;;;7.43;2.42;;;;;;;18.76;nan;100139.44;5065025;28;20071;-69
2022/10/24 09:41:07;;;;;;;7.53;2.30;;;;;;;18.64;nan;100144.69;5077318;28;20052;-69
2022/10/24 09:43:40;;;;;;;5.65;2.00;;;;;;;18.51;nan;100139.38;5078968;28;20028;-68
2022/10/24 09:46:07;;;;;;;10.10;2.20;;;;;;;18.35;nan;100146.88;5080453;28;20485;-69
2022/10/24 09:48:55;;;;;;;8.13;1.92;;;;;;;18.42;nan;100144.16;5081156;28;20043;-68
2022/10/24 09:51:32;;;;;;;6.90;2.17;;;;;;;18.57;nan;100141.22;5079014;28;20028;-68
2022/10/24 09:54:18;;;;;;;6.65;2.10;;;;;;;18.66;nan;100140.75;5074356;28;20115;-68
2022/10/24 09:56:46;;;;;;;9.60;2.70;;;;;;;18.71;nan;100147.31;5085194;28;20401;-68
2022/10/24 09:59:30;;;;;;;8.95;2.40;;;;;;;18.70;nan;100149.19;5078616;28;20036;-68
2022/10/24 10:02:20;;;;;;;4.43;1.70;;;;;;;18.67;nan;100147.75;5086139;28;20157;-68
2022/10/24 10:04:47;;;;;;;5.78;2.25;;;;;;;18.73;nan;100142.56;5086461;28;20408;-68
2022/10/24 10:07:17;;;;;;;3.65;1.83;;;;;;;18.86;nan;100158.59;5084264;28;20036;-68
2022/10/24 10:09:52;;;;;;;6.70;2.40;;;;;;;19.00;nan;100154.00;5085978;28;20077;-68
2022/10/24 10:12:37;;;;;;;8.80;2.13;;;;;;;19.17;nan;100165.81;5082797;28;20487;-69
2022/10/24 10:15:29;;;;;;;6.20;2.13;;;;;;;19.34;nan;100158.06;5079762;28;20047;-68
2022/10/24 10:17:56;;;;;;;;;;;;;;;19.50;nan;100168.25;5066418;28;20418;-68
2022/10/24 10:20:39;;;;;;;8.68;2.00;;;;;;;19.69;nan;100177.19;5084377;28;19919;-69
2022/10/24 10:23:24;;;;;;;7.93;2.20;;;;;;;19.46;nan;100169.72;5087711;28;20520;-68
2022/10/24 10:26:03;;;;;;;7.53;1.90;;;;;;;19.27;nan;100166.16;5080482;28;20040;-68
2022/10/24 10:28:31;;;;;;;8.25;2.60;;;;;;;19.05;nan;100179.09;5084514;28;20054;-68
2022/10/24 10:30:59;;;;;;;7.15;1.92;;;;;;;18.91;nan;100174.84;5084609;28;20036;-69
2022/10/24 10:33:37;;;;;;;8.25;2.35;;;;;;;18.83;nan;100177.75;5084819;28;20036;-68
2022/10/24 10:36:16;;;;;;;5.72;2.08;;;;;;;18.67;nan;100169.19;5086455;28;20066;-68
2022/10/24 10:38:47;;;;;;;8.95;2.30;;;;;;;18.61;nan;100171.88;5066592;28;20071;-68
2022/10/24 10:41:15;;;;;;;;;;;;;;;18.57;nan;100171.50;5085808;28;20071;-68
2022/10/24 10:44:13;;;;;;;7.40;2.20;;;;;;;18.58;nan;100173.13;5086015;28;19931;-68
2022/10/24 10:46:44;;;;;;;6.93;2.10;;;;;;;18.63;nan;100184.03;5084944;28;20115;-68
2022/10/24 10:49:30;;;;;;;4.53;2.08;;;;;;;18.75;nan;100186.84;5085000;28;20040;-68
2022/10/24 10:52:24;;;;;;;6.93;2.10;;;;;;;18.82;nan;100178.81;5081889;28;20035;-68
2022/10/24 10:55:06;;;;;;;5.95;2.10;;;;;;;18.87;nan;100187.84;5085335;28;20044;-68
2022/10/24 10:57:56;;;;;;;8.13;2.78;;;;;;;19.02;nan;100181.38;5078532;28;20043;-68
2022/10/24 11:00:33;;;;;;;6.85;2.20;;;;;;;19.23;nan;100172.97;5083611;28;20040;-67
2022/10/24 11:03:25;;;;;;;6.10;2.00;;;;;;;19.99;nan;100172.97;5083328;28;20036;-68
2022/10/24 11:06:00;;;;;;;6.55;1.80;;;;;;;20.01;nan;100177.09;5063202;28;20036;-67
2022/10/24 11:08:25;;;;;;;4.57;1.90;;;;;;;19.92;nan;100162.31;5081853;28;20028;-67
2022/10/24 11:10:56;;;;;;;6.47;1.70;;;;;;;19.74;nan;100165.81;5083445;28;20058;-69
2022/10/24 11:13:36;;;;;;;6.35;2.00;;;;;;;19.56;nan;100161.19;5083984;28;20290;-67
2022/10/24 11:16:07;;;;;;;7.55;2.28;;;;;;;19.59;nan;100176.00;5084934;28;20047;-67
2022/10/24 11:18:35;;;;;;;7.30;2.22;;;;;;;19.59;nan;100176.81;5083810;28;20043;-67
2022/10/24 11:21:05;;;;;;;6.80;2.00;;;;;;;19.67;nan;100175.75;5080928;28;20035;-67
2022/10/24 11:23:38;;;;;;;6.90;2.17;;;;;;;19.68;nan;100180.09;5085054;28;20032;-68
2022/10/24 11:26:34;;;;;;;7.32;2.25;;;;;;;19.61;nan;100173.94;5080597;28;20032;-67
2022/10/24 11:29:34;;;;;;;6.47;2.20;;;;;;;19.73;nan;100183.78;5079137;28;20035;-67
2022/10/24 11:32:22;;;;;;;5.75;1.92;;;;;;;19.75;nan;100177.34;5080927;28;20040;-67
2022/10/24 11:35:00;;;;;;;7.68;2.35;;;;;;;19.73;nan;100165.00;5083864;28;20041;-67
2022/10/24 11:37:32;;;;;;;6.15;2.38;;;;;;;19.91;nan;100163.38;5078399;28;20058;-67
2022/10/24 11:40:03;;;;;;;8.07;2.22;;;;;;;20.02;nan;100161.78;5084083;28;20070;-67
2022/10/24 11:43:06;;;;;;;10.90;2.22;;;;;;;20.00;nan;100162.03;5083326;28;20447;-68
2022/10/24 11:45:59;;;;;;;10.10;2.50;;;;;;;20.19;nan;100153.97;5082327;28;20054;-68
2022/10/24 11:48:34;;;;;;;6.07;2.30;;;;;;;20.26;nan;100149.34;5073439;28;20031;-68
2022/10/24 11:51:07;;;;;;;7.03;2.28;;;;;;;20.37;nan;100148.59;5083605;28;20093;-68
2022/10/24 11:53:33;;;;;;;6.82;2.55;;;;;;;20.52;nan;100142.81;5080938;28;20089;-68
2022/10/24 11:56:29;;;;;;;5.05;2.05;;;;;;;20.77;nan;100142.75;5085028;28;20040;-68
2022/10/24 11:59:01;;;;;;;7.18;2.20;;;;;;;20.93;nan;100136.72;5083238;28;20044;-68